createdAt,value
2024-01-17T00:02:07.969Z,100097.22
2024-01-17T00:04:34.626Z,100082.63
2024-01-17T00:07:01.433Z,100077.53
2024-01-17T00:09:29.441Z,100080.81
2024-01-17T00:11:55.912Z,100067.97
2024-01-17T00:14:22.654Z,100063.97
2024-01-17T00:16:49.291Z,100068.91
2024-01-17T00:19:16.004Z,100059.44
2024-01-17T00:21:43.433Z,100057.78
2024-01-17T00:24:10.275Z,100045.78
2024-01-17T00:26:38.299Z,100059.50
2024-01-17T00:29:04.733Z,100056.13
2024-01-17T00:31:31.329Z,100063.84
2024-01-17T00:33:58.016Z,100063.00
2024-01-17T00:36:24.868Z,100054.38
2024-01-17T00:38:51.540Z,100051.06
2024-01-17T00:41:18.369Z,100045.22
2024-01-17T00:43:46.569Z,100031.47
2024-01-17T00:46:13.277Z,100021.19
2024-01-17T00:48:40.019Z,100015.34
2024-01-17T00:51:06.827Z,100014.41
2024-01-17T00:53:33.569Z,100005.09
2024-01-17T00:56:00.357Z,100011.06
2024-01-17T00:58:27.040Z,100002.53
2024-01-17T01:00:55.042Z,99994.78
2024-01-17T01:03:21.729Z,99985.50
2024-01-17T01:05:48.498Z,99994.81
2024-01-17T01:08:15.147Z,99986.19
2024-01-17T01:10:42.447Z,99982.69
2024-01-17T01:13:09.052Z,99978.47
2024-01-17T01:15:35.649Z,99979.31
2024-01-17T01:18:04.109Z,99971.72
2024-01-17T01:20:30.950Z,99969.22
2024-01-17T01:22:57.647Z,99975.91
2024-01-17T01:25:24.224Z,99968.91
2024-01-17T01:27:50.833Z,99966.38
2024-01-17T01:30:17.554Z,99957.81
2024-01-17T01:32:44.352Z,99946.13
2024-01-17T01:35:12.367Z,99948.44
2024-01-17T01:37:38.998Z,99946.50
2024-01-17T01:40:08.509Z,99937.22
2024-01-17T01:42:35.575Z,99923.78
2024-01-17T01:45:02.473Z,99939.22
2024-01-17T01:47:29.235Z,99922.16
2024-01-17T01:49:55.872Z,99923.75
2024-01-17T01:52:24.024Z,99929.69
2024-01-17T01:54:50.666Z,99928.91
2024-01-17T01:57:17.759Z,99929.88
2024-01-17T01:59:46.863Z,99928.34
2024-01-17T02:02:13.765Z,99925.94
2024-01-17T02:04:40.789Z,99917.09
2024-01-17T02:07:08.866Z,99918.59
2024-01-17T02:09:36.958Z,99915.94
2024-01-17T02:12:04.358Z,99904.97
2024-01-17T02:14:31.027Z,99912.47
2024-01-17T02:16:57.660Z,99907.63
2024-01-17T02:19:24.362Z,99904.41
2024-01-17T02:21:50.990Z,99902.66
2024-01-17T02:24:22.074Z,99900.00
2024-01-17T02:26:48.788Z,99892.28
2024-01-17T02:29:15.466Z,99888.34
2024-01-17T02:31:42.859Z,99883.38
2024-01-17T02:34:09.843Z,99868.16
2024-01-17T02:36:36.589Z,99864.78
2024-01-17T02:39:03.296Z,99855.38
2024-01-17T02:41:31.302Z,99852.97
2024-01-17T02:43:57.740Z,99852.97
2024-01-17T02:46:27.484Z,99845.22
2024-01-17T02:48:54.145Z,99849.75
2024-01-17T02:51:20.897Z,99844.53
2024-01-17T02:53:47.542Z,99847.94
2024-01-17T02:56:15.431Z,99856.31
2024-01-17T02:58:43.243Z,99846.78
2024-01-17T03:01:10.033Z,99841.84
2024-01-17T03:03:36.806Z,99840.94
2024-01-17T03:06:03.669Z,99829.91
2024-01-17T03:08:30.525Z,99830.72
2024-01-17T03:10:57.224Z,99818.84
2024-01-17T03:13:23.797Z,99799.91
2024-01-17T03:15:51.724Z,99809.34
2024-01-17T03:18:18.842Z,99806.00
2024-01-17T03:20:45.634Z,99797.38
2024-01-17T03:23:12.233Z,99793.09
2024-01-17T03:25:38.823Z,99786.25
2024-01-17T03:28:05.683Z,99776.22
2024-01-17T03:30:33.885Z,99775.94
2024-01-17T03:33:01.981Z,99772.38
2024-01-17T03:35:28.796Z,99751.00
2024-01-17T03:37:56.582Z,99737.47
2024-01-17T03:40:23.247Z,99729.03
2024-01-17T03:42:49.828Z,99724.63
2024-01-17T03:45:16.646Z,99731.88
2024-01-17T03:47:43.329Z,99725.81
2024-01-17T03:50:11.409Z,99713.81
2024-01-17T03:52:38.024Z,99650.41
2024-01-17T03:55:05.251Z,99699.13
2024-01-17T03:57:32.918Z,99694.34
2024-01-17T03:59:59.640Z,99676.38
2024-01-17T04:02:26.655Z,99674.56
2024-01-17T04:04:53.364Z,99656.59
2024-01-17T04:07:23.448Z,99654.69
2024-01-17T04:09:50.241Z,99648.75
2024-01-17T04:12:16.926Z,99642.09
2024-01-17T04:14:43.752Z,99647.34
2024-01-17T04:17:11.589Z,99639.59
2024-01-17T04:19:38.260Z,99631.72
2024-01-17T04:22:05.031Z,99625.56
2024-01-17T04:24:32.964Z,99617.25
2024-01-17T04:26:59.414Z,99607.78
2024-01-17T04:29:26.046Z,99601.91
2024-01-17T04:31:54.130Z,99585.88
2024-01-17T04:34:21.105Z,99579.81
2024-01-17T04:36:48.114Z,99574.91
2024-01-17T04:39:16.206Z,99565.13
2024-01-17T04:41:44.535Z,99572.69
2024-01-17T04:44:11.345Z,99563.94
2024-01-17T04:46:38.254Z,99556.31
2024-01-17T04:49:05.209Z,99565.53
2024-01-17T04:51:31.914Z,99566.59
2024-01-17T04:53:59.683Z,99561.25
2024-01-17T04:56:27.002Z,99550.06
2024-01-17T04:58:55.212Z,99545.09
2024-01-17T05:01:21.898Z,99539.91
2024-01-17T05:03:48.656Z,99528.69
2024-01-17T05:06:15.437Z,99536.00
2024-01-17T05:08:42.380Z,99524.28
2024-01-17T05:11:09.012Z,99517.72
2024-01-17T05:13:35.697Z,99519.22
2024-01-17T05:16:04.006Z,99510.66
2024-01-17T05:18:31.401Z,99506.44
2024-01-17T05:20:58.273Z,99506.97
2024-01-17T05:23:24.874Z,99503.63
2024-01-17T05:25:51.556Z,99495.31
2024-01-17T05:28:18.122Z,99494.00
2024-01-17T05:30:44.811Z,99493.94
2024-01-17T05:33:12.876Z,99479.06
2024-01-17T05:35:42.254Z,99477.03
2024-01-17T05:38:08.853Z,99465.81
2024-01-17T05:40:35.482Z,99473.09
2024-01-17T05:43:02.525Z,99461.44
2024-01-17T05:45:29.159Z,99461.00
2024-01-17T05:47:55.943Z,99452.38
2024-01-17T05:50:23.997Z,99444.84
2024-01-17T05:52:50.699Z,99447.47
2024-01-17T05:55:17.466Z,99449.03
2024-01-17T05:57:44.334Z,99444.97
2024-01-17T06:00:12.514Z,99444.06
2024-01-17T06:02:41.222Z,99434.81
2024-01-17T06:05:11.605Z,99429.13
2024-01-17T06:07:43.888Z,99431.72
2024-01-17T06:10:14.165Z,99424.03
2024-01-17T06:12:41.128Z,99418.44
2024-01-17T06:15:08.836Z,99424.19
2024-01-17T06:17:35.608Z,99422.75
2024-01-17T06:20:02.406Z,99423.56
2024-01-17T06:22:29.051Z,99418.50
2024-01-17T06:24:57.614Z,99414.16
2024-01-17T06:27:24.509Z,99402.91
2024-01-17T06:29:52.497Z,99405.34
2024-01-17T06:32:19.507Z,99404.63
2024-01-17T06:34:46.133Z,99400.38
2024-01-17T06:37:12.888Z,99396.03
2024-01-17T06:39:40.026Z,99389.91
2024-01-17T06:42:08.230Z,99388.53
2024-01-17T06:44:35.052Z,99386.34
2024-01-17T06:47:01.712Z,99378.28
2024-01-17T06:49:28.504Z,99376.88
2024-01-17T06:51:56.131Z,99367.34
2024-01-17T06:54:22.764Z,99357.63
2024-01-17T06:56:49.509Z,99344.69
2024-01-17T06:59:20.163Z,99349.63
2024-01-17T07:01:46.970Z,99343.06
2024-01-17T07:04:13.805Z,99333.19
2024-01-17T07:06:40.580Z,99335.84
2024-01-17T07:09:09.461Z,99333.44
2024-01-17T07:11:36.639Z,99328.22
2024-01-17T07:14:04.230Z,99331.22
2024-01-17T07:16:32.402Z,99326.94
2024-01-17T07:18:59.925Z,99317.63
2024-01-17T07:21:26.903Z,99313.38
2024-01-17T07:23:54.080Z,99304.78
2024-01-17T07:26:20.726Z,99302.56
2024-01-17T07:28:47.303Z,99297.53
2024-01-17T07:31:13.950Z,99295.50
2024-01-17T07:33:42.044Z,99287.78
2024-01-17T07:36:09.071Z,99285.91
2024-01-17T07:38:35.817Z,99280.25
2024-01-17T07:41:02.997Z,99270.91
2024-01-17T07:43:29.653Z,99259.50
2024-01-17T07:45:56.899Z,99258.41
2024-01-17T07:48:23.697Z,99269.91
2024-01-17T07:50:51.897Z,99263.78
2024-01-17T07:53:18.557Z,99258.41
2024-01-17T07:55:45.112Z,99242.97
2024-01-17T07:58:13.054Z,99240.84
2024-01-17T08:00:40.016Z,99229.75
2024-01-17T08:03:08.262Z,99231.22
2024-01-17T08:05:35.302Z,99226.41
2024-01-17T08:08:04.068Z,99224.47
2024-01-17T08:10:31.341Z,99218.97
2024-01-17T08:12:57.908Z,99202.13
2024-01-17T08:15:24.492Z,99194.63
2024-01-17T08:17:51.691Z,99194.50
2024-01-17T08:20:18.546Z,99191.66
2024-01-17T08:22:45.433Z,99190.63
2024-01-17T08:25:14.159Z,99191.38
2024-01-17T08:27:41.117Z,99184.44
2024-01-17T08:30:12.002Z,99187.94
2024-01-17T08:32:39.264Z,99181.34
2024-01-17T08:35:08.027Z,99179.78
2024-01-17T08:37:35.707Z,99179.78
2024-01-17T08:40:02.291Z,99186.13
2024-01-17T08:42:30.236Z,99166.16
2024-01-17T08:44:56.919Z,99160.53
2024-01-17T08:47:23.642Z,99154.59
2024-01-17T08:49:50.921Z,99144.72
2024-01-17T08:52:17.564Z,99151.03
2024-01-17T08:54:44.110Z,99157.13
2024-01-17T08:57:11.031Z,99151.03
2024-01-17T08:59:39.128Z,99141.13
2024-01-17T09:02:05.878Z,99133.63
2024-01-17T09:04:33.600Z,99124.53
2024-01-17T09:07:00.499Z,99120.53
2024-01-17T09:09:27.458Z,99109.38
2024-01-17T09:11:56.973Z,99103.59
2024-01-17T09:14:25.664Z,99104.72
2024-01-17T09:16:54.384Z,99095.06
2024-01-17T09:19:24.742Z,99075.69
2024-01-17T09:21:53.906Z,99078.31
2024-01-17T09:24:22.032Z,99072.84
2024-01-17T09:26:52.678Z,99069.63
2024-01-17T09:29:19.932Z,99071.31
2024-01-17T09:31:47.059Z,99065.34
2024-01-17T09:34:15.106Z,99058.09
2024-01-17T09:36:41.809Z,99062.69
2024-01-17T09:39:08.495Z,99061.25
2024-01-17T09:41:35.306Z,99065.03
2024-01-17T09:44:02.006Z,99063.41
2024-01-17T09:46:29.886Z,99052.69
2024-01-17T09:48:56.705Z,99058.69
2024-01-17T09:51:26.826Z,99057.34
2024-01-17T09:53:54.672Z,99060.31
2024-01-17T09:56:23.086Z,99058.41
2024-01-17T09:58:52.076Z,99064.63
2024-01-17T10:01:20.860Z,99061.25
2024-01-17T10:03:47.866Z,99058.50
2024-01-17T10:06:16.711Z,99057.34
2024-01-17T10:08:45.221Z,99048.56
2024-01-17T10:11:11.827Z,99055.53
2024-01-17T10:13:38.589Z,99051.06
2024-01-17T10:16:05.775Z,99050.38
2024-01-17T10:18:32.652Z,99053.97
2024-01-17T10:20:59.633Z,99048.50
2024-01-17T10:23:27.693Z,99049.50
2024-01-17T10:25:55.985Z,99042.28
2024-01-17T10:28:23.210Z,99049.81
2024-01-17T10:30:49.782Z,99044.84
2024-01-17T10:33:16.534Z,99041.56
2024-01-17T10:35:43.292Z,99036.41
2024-01-17T10:38:09.931Z,99031.53
2024-01-17T10:40:36.566Z,99014.16
2024-01-17T10:43:11.356Z,99014.34
2024-01-17T10:45:40.766Z,99014.81
2024-01-17T10:48:07.954Z,99012.19
2024-01-17T10:50:34.762Z,99006.50
2024-01-17T10:53:04.525Z,98994.13
2024-01-17T10:55:34.504Z,98997.06
2024-01-17T10:58:01.673Z,98992.50
2024-01-17T11:00:33.256Z,98994.22
2024-01-17T11:03:01.486Z,98980.47
2024-01-17T11:05:33.362Z,98985.34
2024-01-17T11:08:00.933Z,98985.69
2024-01-17T11:10:28.199Z,98984.00
2024-01-17T11:12:56.239Z,98973.91
2024-01-17T11:15:23.811Z,98974.97
2024-01-17T11:17:54.891Z,98971.59
2024-01-17T11:20:21.510Z,98973.19
2024-01-17T11:22:50.562Z,98972.34
2024-01-17T11:25:21.986Z,98964.34
2024-01-17T11:27:52.104Z,98961.47
2024-01-17T11:30:30.038Z,98958.28
2024-01-17T11:33:05.611Z,98957.97
2024-01-17T11:35:41.519Z,98954.13
2024-01-17T11:38:12.043Z,98945.38
2024-01-17T11:40:38.817Z,98942.41
2024-01-17T11:43:05.901Z,98934.09
2024-01-17T11:45:32.634Z,98923.72
2024-01-17T11:48:12.447Z,98917.97
2024-01-17T11:50:39.443Z,98913.56
2024-01-17T11:53:06.218Z,98916.81
2024-01-17T11:55:33.602Z,98911.00
2024-01-17T11:58:01.771Z,98906.31
2024-01-17T12:00:28.734Z,98891.13
2024-01-17T12:03:00.834Z,98882.38
2024-01-17T12:05:28.975Z,98875.09
2024-01-17T12:07:55.824Z,98873.22
2024-01-17T12:10:22.644Z,98867.09
2024-01-17T12:12:49.195Z,98864.97
2024-01-17T12:15:15.999Z,98845.91
2024-01-17T12:17:45.308Z,98851.97
2024-01-17T12:20:12.899Z,98838.38
2024-01-17T12:22:41.031Z,98831.44
2024-01-17T12:25:09.353Z,98816.84
2024-01-17T12:27:35.916Z,98806.78
2024-01-17T12:30:02.845Z,98797.88
2024-01-17T12:32:29.580Z,98787.69
2024-01-17T12:34:56.276Z,98791.78
2024-01-17T12:37:23.046Z,98777.16
2024-01-17T12:39:50.994Z,98778.69
2024-01-17T12:42:18.079Z,98767.94
2024-01-17T12:44:45.798Z,98762.22
2024-01-17T12:47:12.419Z,98752.50
2024-01-17T12:49:39.050Z,98745.34
2024-01-17T12:52:05.829Z,98747.34
2024-01-17T12:54:32.521Z,98753.72
2024-01-17T12:57:00.532Z,98740.56
2024-01-17T12:59:27.118Z,98739.38
2024-01-17T13:01:58.702Z,98720.09
2024-01-17T13:04:25.321Z,98718.38
2024-01-17T13:06:53.093Z,98711.53
2024-01-17T13:09:22.750Z,98704.31
2024-01-17T13:11:51.247Z,98694.72
2024-01-17T13:14:19.877Z,98689.91
2024-01-17T13:16:46.960Z,98691.94
2024-01-17T13:19:15.363Z,98689.84
2024-01-17T13:21:42.421Z,98687.91
2024-01-17T13:24:09.861Z,98686.88
2024-01-17T13:26:37.304Z,98685.53
2024-01-17T13:29:05.673Z,98684.47
2024-01-17T13:31:34.683Z,98692.69
2024-01-17T13:34:04.651Z,98693.72
2024-01-17T13:36:32.043Z,98684.69
2024-01-17T13:38:58.861Z,98683.97
2024-01-17T13:41:27.221Z,98686.63
2024-01-17T13:43:54.423Z,98684.72
2024-01-17T13:46:21.120Z,98677.59
2024-01-17T13:48:49.733Z,98683.22
2024-01-17T13:51:18.184Z,98688.28
2024-01-17T13:53:45.162Z,98688.69
2024-01-17T13:56:11.978Z,98697.09
2024-01-17T13:58:38.956Z,98692.00
2024-01-17T14:01:06.985Z,98698.31
2024-01-17T14:03:34.804Z,98689.34
2024-01-17T14:06:03.258Z,98694.59
2024-01-17T14:08:30.678Z,98686.69
2024-01-17T14:10:57.756Z,98681.56
2024-01-17T14:13:24.470Z,98684.72
2024-01-17T14:15:51.274Z,98662.94
2024-01-17T14:18:18.684Z,98679.22
2024-01-17T14:20:45.487Z,98681.38
2024-01-17T14:23:13.949Z,98673.00
2024-01-17T14:25:40.521Z,98671.09
2024-01-17T14:28:08.804Z,98677.97
2024-01-17T14:30:35.723Z,98674.91
2024-01-17T14:33:05.392Z,98666.28
2024-01-17T14:35:35.150Z,98674.38
2024-01-17T14:38:03.935Z,98668.47
2024-01-17T14:40:31.872Z,98675.41
2024-01-17T14:42:59.133Z,98678.69
2024-01-17T14:45:25.862Z,98669.19
2024-01-17T14:47:52.587Z,98673.31
2024-01-17T14:50:19.328Z,98664.44
2024-01-17T14:52:46.784Z,98669.03
2024-01-17T14:55:13.757Z,98638.31
2024-01-17T14:57:41.947Z,98668.69
2024-01-17T15:00:19.187Z,98669.75
2024-01-17T15:02:47.293Z,98666.34
2024-01-17T15:05:14.441Z,98665.56
2024-01-17T15:07:42.059Z,98664.09
2024-01-17T15:10:11.805Z,98664.22
2024-01-17T15:12:38.479Z,98663.19
2024-01-17T15:15:08.561Z,98660.78
2024-01-17T15:17:36.188Z,98657.03
2024-01-17T15:20:03.158Z,98657.16
2024-01-17T15:22:31.441Z,98658.06
2024-01-17T15:24:58.480Z,98658.13
2024-01-17T15:27:25.201Z,98658.69
2024-01-17T15:29:52.841Z,98658.28
2024-01-17T15:32:21.019Z,98647.63
2024-01-17T15:34:50.984Z,98651.91
2024-01-17T15:37:18.329Z,98653.50
2024-01-17T15:39:49.489Z,98647.53
2024-01-17T15:42:17.268Z,98655.88
2024-01-17T15:44:44.084Z,98654.31
2024-01-17T15:47:10.750Z,98655.78
2024-01-17T15:49:38.739Z,98665.31
2024-01-17T15:52:05.931Z,98665.91
2024-01-17T15:54:32.604Z,98664.75
2024-01-17T15:56:59.268Z,98661.09
2024-01-17T15:59:25.927Z,98663.16
2024-01-17T16:01:52.997Z,98665.00
2024-01-17T16:04:19.596Z,98630.19
2024-01-17T16:06:47.664Z,98669.97
2024-01-17T16:09:14.859Z,98679.50
2024-01-17T16:11:41.636Z,98674.22
2024-01-17T16:14:08.368Z,98679.84
2024-01-17T16:16:35.086Z,98685.06
2024-01-17T16:19:02.685Z,98680.56
2024-01-17T16:21:29.892Z,98677.19
2024-01-17T16:23:59.886Z,98677.09
2024-01-17T16:26:26.635Z,98673.19
2024-01-17T16:28:53.260Z,98667.88
2024-01-17T16:31:19.816Z,98665.31
2024-01-17T16:33:46.641Z,98666.06
2024-01-17T16:36:14.480Z,98680.16
2024-01-17T16:38:41.779Z,98681.47
2024-01-17T16:41:11.057Z,98686.63
2024-01-17T16:43:37.967Z,98696.31
2024-01-17T16:46:05.213Z,98698.00
2024-01-17T16:48:34.125Z,98694.38
2024-01-17T16:51:03.468Z,98699.75
2024-01-17T16:53:31.447Z,98705.41
2024-01-17T16:55:58.084Z,98709.94
2024-01-17T16:58:26.068Z,98710.69
2024-01-17T17:00:55.648Z,98715.16
2024-01-17T17:03:23.415Z,98711.69
2024-01-17T17:05:51.696Z,98709.53
2024-01-17T17:08:20.360Z,98712.59
2024-01-17T17:10:46.937Z,98709.28
2024-01-17T17:13:13.560Z,98714.44
2024-01-17T17:15:41.760Z,98710.69
2024-01-17T17:18:12.818Z,98719.91
2024-01-17T17:20:40.424Z,98733.25
2024-01-17T17:23:07.471Z,98729.38
2024-01-17T17:25:34.300Z,98723.78
2024-01-17T17:28:00.849Z,98716.16
2024-01-17T17:30:27.552Z,98708.84
2024-01-17T17:32:55.624Z,98707.31
2024-01-17T17:35:22.272Z,98713.09
2024-01-17T17:37:48.944Z,98711.50
2024-01-17T17:40:15.767Z,98709.41
2024-01-17T17:42:42.575Z,98716.06
2024-01-17T17:45:10.548Z,98721.81
2024-01-17T17:47:37.297Z,98721.56
2024-01-17T17:50:11.998Z,98721.91
2024-01-17T17:52:38.652Z,98712.22
2024-01-17T17:55:06.271Z,98718.63
2024-01-17T17:57:32.923Z,98725.03
2024-01-17T17:59:59.990Z,98729.94
2024-01-17T18:02:26.812Z,98730.78
2024-01-17T18:04:53.410Z,98725.22
2024-01-17T18:07:21.319Z,98735.09
2024-01-17T18:09:49.600Z,98741.81
2024-01-17T18:12:17.249Z,98737.41
2024-01-17T18:14:43.947Z,98739.41
2024-01-17T18:17:13.017Z,98740.88
2024-01-17T18:19:39.704Z,98751.31
2024-01-17T18:22:06.329Z,98749.16
2024-01-17T18:24:34.389Z,98756.22
2024-01-17T18:27:01.057Z,98766.00
2024-01-17T18:29:28.032Z,98772.75
2024-01-17T18:31:54.663Z,98774.41
2024-01-17T18:34:23.875Z,98788.66
2024-01-17T18:36:50.583Z,98792.00
2024-01-17T18:39:18.862Z,98796.63
2024-01-17T18:41:46.889Z,98790.25
2024-01-17T18:44:13.427Z,98797.00
2024-01-17T18:46:41.855Z,98796.34
2024-01-17T18:49:08.667Z,98794.50
2024-01-17T18:51:35.716Z,98803.81
2024-01-17T18:54:02.384Z,98774.56
2024-01-17T18:56:31.248Z,98807.59
2024-01-17T18:59:00.218Z,98807.44
2024-01-17T19:01:32.317Z,98812.81
2024-01-17T19:03:59.031Z,98808.88
2024-01-17T19:06:28.451Z,98810.84
2024-01-17T19:08:55.521Z,98824.47
2024-01-17T19:11:22.315Z,98833.22
2024-01-17T19:13:49.119Z,98833.78
2024-01-17T19:16:17.129Z,98835.09
2024-01-17T19:18:44.007Z,98834.28
2024-01-17T19:21:10.847Z,98842.81
2024-01-17T19:23:38.672Z,98849.53
2024-01-17T19:26:07.852Z,98845.19
2024-01-17T19:28:34.440Z,98845.38
2024-01-17T19:31:01.061Z,98855.00
2024-01-17T19:33:32.328Z,98864.88
2024-01-17T19:35:59.007Z,98870.41
2024-01-17T19:38:26.516Z,98857.94
2024-01-17T19:40:53.329Z,98877.00
2024-01-17T19:43:19.997Z,98871.03
2024-01-17T19:45:46.630Z,98866.41
2024-01-17T19:48:13.488Z,98874.03
2024-01-17T19:50:43.823Z,98876.31
2024-01-17T19:53:10.462Z,98871.69
2024-01-17T19:55:37.046Z,98880.63
2024-01-17T19:58:03.958Z,98879.63
2024-01-17T20:00:31.889Z,98881.59
2024-01-17T20:02:59.032Z,98864.16
2024-01-17T20:05:28.634Z,98886.94
2024-01-17T20:07:56.549Z,98894.28
2024-01-17T20:10:23.192Z,98903.22
2024-01-17T20:12:50.341Z,98909.66
2024-01-17T20:15:18.716Z,98911.06
2024-01-17T20:17:45.446Z,98919.34
2024-01-17T20:20:12.439Z,98934.66
2024-01-17T20:22:39.013Z,98933.44
2024-01-17T20:25:14.613Z,98944.84
2024-01-17T20:27:41.753Z,98946.09
2024-01-17T20:30:09.394Z,98943.22
2024-01-17T20:32:36.854Z,98957.00
2024-01-17T20:35:04.049Z,98959.78
2024-01-17T20:37:30.748Z,98957.16
2024-01-17T20:39:57.301Z,98966.56
2024-01-17T20:42:25.364Z,98951.06
2024-01-17T20:44:52.045Z,98960.84
2024-01-17T20:47:18.689Z,98971.88
2024-01-17T20:49:46.429Z,98977.91
2024-01-17T20:52:13.538Z,98983.13
2024-01-17T20:54:42.954Z,98980.75
2024-01-17T20:57:12.288Z,98990.06
2024-01-17T20:59:40.672Z,98980.22
2024-01-17T21:02:07.201Z,98968.25
2024-01-17T21:04:33.808Z,98961.44
2024-01-17T21:07:00.731Z,98953.78
2024-01-17T21:09:27.573Z,98958.78
2024-01-17T21:11:54.748Z,98967.56
2024-01-17T21:14:21.494Z,98971.13
2024-01-17T21:16:49.369Z,98980.34
2024-01-17T21:19:15.985Z,98987.34
2024-01-17T21:21:42.913Z,98984.78
2024-01-17T21:24:09.811Z,98989.84
2024-01-17T21:26:39.681Z,98989.72
2024-01-17T21:29:07.349Z,98994.47
2024-01-17T21:31:37.518Z,98996.34
2024-01-17T21:34:07.982Z,98998.91
2024-01-17T21:36:35.416Z,99006.56
2024-01-17T21:39:04.249Z,99012.75
2024-01-17T21:41:31.412Z,99019.16
2024-01-17T21:43:57.994Z,99029.63
2024-01-17T21:46:25.019Z,99028.78
2024-01-17T21:48:51.858Z,99026.34
2024-01-17T21:51:20.279Z,99036.34
2024-01-17T21:53:47.951Z,99039.06
2024-01-17T21:56:14.840Z,99040.81
2024-01-17T21:58:41.581Z,99052.03
2024-01-17T22:01:09.360Z,99048.22
2024-01-17T22:03:37.382Z,99040.44
2024-01-17T22:06:05.025Z,99047.94
2024-01-17T22:08:44.320Z,99060.78
2024-01-17T22:11:18.889Z,99057.25
2024-01-17T22:13:45.472Z,99051.41
2024-01-17T22:16:12.178Z,99054.53
2024-01-17T22:18:38.896Z,99054.25
2024-01-17T22:21:05.852Z,99058.28
2024-01-17T22:23:33.928Z,99052.25
2024-01-17T22:26:00.544Z,99063.34
2024-01-17T22:28:27.090Z,99063.28
2024-01-17T22:30:53.658Z,99067.81
2024-01-17T22:33:20.369Z,99061.00
2024-01-17T22:35:47.121Z,99053.28
2024-01-17T22:38:13.696Z,99050.00
2024-01-17T22:40:42.149Z,99053.41
2024-01-17T22:43:08.790Z,99066.69
2024-01-17T22:45:35.548Z,99073.72
2024-01-17T22:48:04.256Z,99078.13
2024-01-17T22:50:33.212Z,99077.88
2024-01-17T22:53:03.113Z,99067.03
2024-01-17T22:55:30.612Z,99075.72
2024-01-17T22:57:58.645Z,99078.03
2024-01-17T23:00:27.092Z,99076.00
2024-01-17T23:02:54.273Z,99070.63
2024-01-17T23:05:22.473Z,99075.25
2024-01-17T23:07:57.454Z,99071.88
2024-01-17T23:10:32.251Z,99060.22
2024-01-17T23:13:00.355Z,99092.16
2024-01-17T23:15:27.233Z,99103.16
2024-01-17T23:17:54.157Z,99104.94
2024-01-17T23:20:20.995Z,99105.81
2024-01-17T23:22:47.662Z,99104.94
2024-01-17T23:25:14.341Z,99106.78
2024-01-17T23:27:40.936Z,99109.13
2024-01-17T23:30:09.903Z,99113.91
2024-01-17T23:32:36.653Z,99116.91
2024-01-17T23:35:03.490Z,99112.72
2024-01-17T23:37:30.156Z,99115.66
2024-01-17T23:39:56.683Z,99127.63
2024-01-17T23:42:23.287Z,99131.59
2024-01-17T23:44:50.116Z,99130.19
2024-01-17T23:47:18.125Z,99134.38
2024-01-17T23:49:44.820Z,99143.50
2024-01-17T23:52:11.447Z,99146.94
2024-01-17T23:54:38.073Z,99142.69
2024-01-17T23:57:05.310Z,99149.72
2024-01-17T23:59:31.924Z,99153.03
